createdAt,value
2023-01-19T00:01:11.190Z,99828.56
2023-01-19T00:03:39.645Z,99821.28
2023-01-19T00:06:09.208Z,99820.13
2023-01-19T00:08:37.959Z,99819.34
2023-01-19T00:11:07.424Z,99816.88
2023-01-19T00:13:35.902Z,99817.69
2023-01-19T00:16:06.122Z,99808.06
2023-01-19T00:18:35.054Z,99818.09
2023-01-19T00:21:03.529Z,99817.50
2023-01-19T00:23:32.014Z,99818.81
2023-01-19T00:26:00.515Z,99828.75
2023-01-19T00:28:29.079Z,99829.19
2023-01-19T00:30:57.601Z,99828.00
2023-01-19T00:33:27.471Z,99827.34
2023-01-19T00:35:56.482Z,99824.22
2023-01-19T00:38:25.245Z,99830.09
2023-01-19T00:40:53.866Z,99821.44
2023-01-19T00:43:21.405Z,99831.34
2023-01-19T00:45:49.949Z,99827.97
2023-01-19T00:48:18.500Z,99828.63
2023-01-19T00:50:50.127Z,99833.66
2023-01-19T00:53:18.623Z,99824.81
2023-01-19T00:55:47.116Z,99823.34
2023-01-19T00:58:15.599Z,99829.25
2023-01-19T01:00:44.853Z,99821.53
2023-01-19T01:03:13.534Z,99829.44
2023-01-19T01:05:42.896Z,99831.16
2023-01-19T01:08:12.742Z,99828.16
2023-01-19T01:10:41.250Z,99829.97
2023-01-19T01:13:20.451Z,99838.84
2023-01-19T01:15:52.001Z,99834.88
2023-01-19T01:18:21.006Z,99831.75
2023-01-19T01:20:49.711Z,99829.84
2023-01-19T01:23:22.783Z,99847.06
2023-01-19T01:25:51.467Z,99834.63
2023-01-19T01:28:19.990Z,99839.66
2023-01-19T01:30:48.633Z,99842.91
2023-01-19T01:33:40.847Z,99845.41
2023-01-19T01:36:06.235Z,99839.06
2023-01-19T01:38:36.165Z,99841.28
2023-01-19T01:41:04.837Z,99837.59
2023-01-19T01:43:48.814Z,99842.19
2023-01-19T01:46:20.085Z,99836.66
2023-01-19T01:48:55.045Z,99848.72
2023-01-19T01:51:30.733Z,99842.41
2023-01-19T01:54:11.763Z,99842.25
2023-01-19T01:56:43.605Z,99841.97
2023-01-19T01:59:25.723Z,99845.81
2023-01-19T02:02:13.290Z,99837.94
2023-01-19T02:04:45.750Z,99841.41
2023-01-19T02:07:38.260Z,99841.53
2023-01-19T02:10:26.687Z,99831.75
2023-01-19T02:13:12.908Z,99832.84
2023-01-19T02:15:41.438Z,99838.97
2023-01-19T02:18:10.558Z,99834.03
2023-01-19T02:20:41.162Z,99836.56
2023-01-19T02:23:18.467Z,99833.28
2023-01-19T02:25:50.179Z,99830.31
2023-01-19T02:28:19.037Z,99831.41
2023-01-19T02:30:47.599Z,99822.16
2023-01-19T02:33:17.907Z,99823.41
2023-01-19T02:35:48.058Z,99821.94
2023-01-19T02:40:52.093Z,99818.56
2023-01-19T02:43:21.364Z,99817.13
2023-01-19T02:45:50.121Z,99818.47
2023-01-19T02:48:21.561Z,99812.97
2023-01-19T02:50:52.280Z,99821.03
2023-01-19T02:53:41.908Z,99819.69
2023-01-19T02:56:36.174Z,99820.31
2023-01-19T02:59:15.598Z,99826.03
2023-01-19T03:02:08.986Z,99830.25
2023-01-19T03:04:54.865Z,99815.78
2023-01-19T03:07:31.665Z,99826.63
2023-01-19T03:10:07.181Z,99836.09
2023-01-19T03:12:45.891Z,99823.47
2023-01-19T03:15:22.285Z,99826.88
2023-01-19T03:17:53.309Z,99819.34
2023-01-19T03:20:25.641Z,99822.47
2023-01-19T03:22:59.349Z,99825.19
2023-01-19T03:25:29.181Z,99812.50
2023-01-19T03:27:59.908Z,99817.38
2023-01-19T03:30:32.899Z,99820.63
2023-01-19T03:33:07.265Z,99818.13
2023-01-19T03:35:41.053Z,99820.66
2023-01-19T03:38:15.991Z,99817.06
2023-01-19T03:40:45.547Z,99828.41
2023-01-19T03:43:17.688Z,99831.16
2023-01-19T03:45:47.129Z,99832.50
2023-01-19T03:48:15.788Z,99833.88
2023-01-19T03:50:44.400Z,99823.22
2023-01-19T03:53:15.276Z,99839.44
2023-01-19T03:55:46.488Z,99838.41
2023-01-19T03:58:16.654Z,99843.38
2023-01-19T04:00:45.253Z,99832.88
2023-01-19T04:03:17.038Z,99840.16
2023-01-19T04:05:46.090Z,99833.34
2023-01-19T04:08:15.089Z,99825.44
2023-01-19T04:10:43.601Z,99828.44
2023-01-19T04:13:12.079Z,99824.59
2023-01-19T04:15:41.994Z,99815.53
2023-01-19T04:18:10.659Z,99828.28
2023-01-19T04:20:39.342Z,99832.41
2023-01-19T04:23:08.111Z,99828.53
2023-01-19T04:25:38.150Z,99828.25
2023-01-19T04:28:07.512Z,99806.66
2023-01-19T04:30:36.056Z,99819.50
2023-01-19T04:33:05.974Z,99819.06
2023-01-19T04:35:35.243Z,99806.97
2023-01-19T04:38:03.749Z,99815.44
2023-01-19T04:40:32.256Z,99806.91
2023-01-19T04:43:01.196Z,99814.41
2023-01-19T04:45:29.950Z,99811.22
2023-01-19T04:47:58.452Z,99820.16
2023-01-19T04:50:28.383Z,99820.44
2023-01-19T04:52:56.949Z,99814.03
2023-01-19T04:55:25.891Z,99820.53
2023-01-19T04:57:54.720Z,99830.00
2023-01-19T05:00:24.486Z,99825.56
2023-01-19T05:02:52.991Z,99837.84
2023-01-19T05:05:21.704Z,99828.69
2023-01-19T05:07:51.596Z,99825.03
2023-01-19T05:10:20.299Z,99832.28
2023-01-19T05:12:48.868Z,99840.41
2023-01-19T05:15:17.432Z,99837.25
2023-01-19T05:17:46.705Z,99839.47
2023-01-19T05:20:16.541Z,99845.63
2023-01-19T05:22:51.497Z,99851.13
2023-01-19T05:25:20.485Z,99848.72
2023-01-19T05:27:49.540Z,99843.91
2023-01-19T05:30:19.234Z,99849.75
2023-01-19T05:32:47.768Z,99853.94
2023-01-19T05:35:20.218Z,99858.72
2023-01-19T05:37:54.967Z,99866.78
2023-01-19T05:40:23.468Z,99859.91
2023-01-19T05:42:53.332Z,99847.06
2023-01-19T05:45:21.953Z,99854.94
2023-01-19T05:47:50.973Z,99852.63
2023-01-19T05:50:20.015Z,99862.00
2023-01-19T05:52:48.639Z,99862.56
2023-01-19T05:55:18.655Z,99860.53
2023-01-19T05:57:47.215Z,99867.97
2023-01-19T06:00:17.069Z,99860.03
2023-01-19T06:02:47.197Z,99859.97
2023-01-19T06:05:15.816Z,99859.56
2023-01-19T06:07:44.419Z,99869.06
2023-01-19T06:10:13.527Z,99866.09
2023-01-19T06:12:43.491Z,99865.09
2023-01-19T06:15:12.961Z,99865.94
2023-01-19T06:17:43.018Z,99867.84
2023-01-19T06:20:13.984Z,99866.91
2023-01-19T06:22:42.618Z,99859.84
2023-01-19T06:25:11.874Z,99873.13
2023-01-19T06:27:44.205Z,99875.75
2023-01-19T06:30:13.697Z,99879.09
2023-01-19T06:32:42.238Z,99878.72
2023-01-19T06:35:11.147Z,99885.47
2023-01-19T06:37:39.839Z,99890.78
2023-01-19T06:40:09.739Z,99892.31
2023-01-19T06:42:38.232Z,99902.50
2023-01-19T06:45:10.145Z,99913.91
2023-01-19T06:47:38.678Z,99908.22
2023-01-19T06:50:07.771Z,99916.63
2023-01-19T06:52:42.287Z,99915.59
2023-01-19T06:55:12.081Z,99925.56
2023-01-19T06:57:40.752Z,99920.47
2023-01-19T07:00:12.029Z,99927.66
2023-01-19T07:02:43.693Z,99933.19
2023-01-19T07:05:14.413Z,99936.50
2023-01-19T07:07:44.828Z,99940.03
2023-01-19T07:10:15.670Z,99938.19
2023-01-19T07:12:46.512Z,99944.31
2023-01-19T07:15:17.361Z,99960.66
2023-01-19T07:17:46.190Z,99955.13
2023-01-19T07:20:15.611Z,99970.22
2023-01-19T07:22:45.730Z,99961.38
2023-01-19T07:25:15.059Z,99968.34
2023-01-19T07:27:44.953Z,99971.41
2023-01-19T07:30:16.127Z,99984.19
2023-01-19T07:32:44.939Z,99975.03
2023-01-19T07:35:13.448Z,99976.50
2023-01-19T07:37:41.910Z,99984.22
2023-01-19T07:40:11.819Z,99985.41
2023-01-19T07:42:40.318Z,99986.03
2023-01-19T07:45:09.895Z,99998.25
2023-01-19T07:47:39.734Z,100000.41
2023-01-19T07:50:09.236Z,99998.47
2023-01-19T07:52:37.712Z,100003.75
2023-01-19T07:55:06.869Z,100002.47
2023-01-19T07:57:36.401Z,100017.03
2023-01-19T08:00:06.681Z,100013.66
2023-01-19T08:02:36.004Z,100021.00
2023-01-19T08:05:06.331Z,100026.38
2023-01-19T08:07:35.062Z,100025.69
2023-01-19T08:10:03.685Z,100030.63
2023-01-19T08:12:32.207Z,100044.38
2023-01-19T08:15:00.734Z,100039.84
2023-01-19T08:17:29.191Z,100041.03
2023-01-19T08:19:57.683Z,100045.00
2023-01-19T08:22:27.498Z,100053.03
2023-01-19T08:24:56.065Z,100060.56
2023-01-19T08:27:24.590Z,100063.28
2023-01-19T08:29:54.429Z,100058.41
2023-01-19T08:32:22.988Z,100061.88
2023-01-19T08:34:51.553Z,100069.72
2023-01-19T08:37:20.050Z,100064.41
2023-01-19T08:39:49.928Z,100074.75
2023-01-19T08:42:18.408Z,100070.38
2023-01-19T08:44:57.481Z,100080.38
2023-01-19T08:47:26.400Z,100091.06
2023-01-19T08:49:54.915Z,100090.81
2023-01-19T08:52:24.758Z,100090.22
2023-01-19T08:54:54.721Z,100103.25
2023-01-19T08:57:23.189Z,100099.16
2023-01-19T08:59:51.674Z,100105.34
2023-01-19T09:02:20.332Z,100100.97
2023-01-19T09:04:48.878Z,100104.97
2023-01-19T09:07:17.554Z,100119.25
2023-01-19T09:09:46.083Z,100116.06
2023-01-19T09:12:16.683Z,100117.19
2023-01-19T09:14:45.161Z,100124.97
2023-01-19T09:17:14.745Z,100129.28
2023-01-19T09:19:43.594Z,100131.88
2023-01-19T09:22:12.121Z,100128.94
2023-01-19T09:24:40.721Z,100128.84
2023-01-19T09:27:09.268Z,100132.56
2023-01-19T09:29:39.118Z,100139.69
2023-01-19T09:32:07.794Z,100153.53
2023-01-19T09:34:36.239Z,100145.06
2023-01-19T09:37:04.860Z,100146.72
2023-01-19T09:39:33.420Z,100143.91
2023-01-19T09:42:08.746Z,100145.66
2023-01-19T09:44:39.175Z,100148.88
2023-01-19T09:47:17.401Z,100153.25
2023-01-19T09:49:51.266Z,100155.38
2023-01-19T09:52:20.505Z,100150.75
2023-01-19T09:54:54.455Z,100161.53
2023-01-19T09:57:23.867Z,100170.53
2023-01-19T09:59:59.505Z,100184.63
2023-01-19T10:02:36.797Z,100177.44
2023-01-19T10:05:06.953Z,100194.56
2023-01-19T10:07:53.410Z,100190.66
2023-01-19T10:10:24.010Z,100190.63
2023-01-19T10:13:16.984Z,100187.34
2023-01-19T10:16:00.621Z,100182.72
2023-01-19T10:18:43.144Z,100189.75
2023-01-19T10:21:16.082Z,100188.44
2023-01-19T10:23:47.721Z,100196.28
2023-01-19T10:26:21.542Z,100192.78
2023-01-19T10:28:54.057Z,100185.25
2023-01-19T10:31:25.820Z,100201.69
2023-01-19T10:33:55.238Z,100197.94
2023-01-19T10:36:28.009Z,100197.38
2023-01-19T10:38:56.560Z,100199.84
2023-01-19T10:41:32.718Z,100198.50
2023-01-19T10:44:02.461Z,100198.66
2023-01-19T10:46:39.453Z,100183.63
2023-01-19T10:49:21.329Z,100196.75
2023-01-19T10:51:50.073Z,100203.06
2023-01-19T10:54:18.871Z,100195.44
2023-01-19T10:56:54.496Z,100198.03
2023-01-19T10:59:36.014Z,100204.56
2023-01-19T11:02:19.102Z,100198.72
2023-01-19T11:04:50.213Z,100210.88
2023-01-19T11:07:22.611Z,100203.75
2023-01-19T11:10:11.741Z,100210.91
2023-01-19T11:12:42.829Z,100209.38
2023-01-19T11:15:17.533Z,100204.28
2023-01-19T11:17:48.696Z,100215.94
2023-01-19T11:20:23.667Z,100218.09
2023-01-19T11:23:07.207Z,100218.50
2023-01-19T11:25:37.624Z,100218.72
2023-01-19T11:28:06.350Z,100213.16
2023-01-19T11:30:37.047Z,100226.28
2023-01-19T11:33:21.073Z,100217.56
2023-01-19T11:35:49.925Z,100218.78
2023-01-19T11:38:22.642Z,100220.31
2023-01-19T11:40:56.151Z,100221.09
2023-01-19T11:43:27.674Z,100214.19
2023-01-19T11:46:00.000Z,100210.06
2023-01-19T11:48:34.589Z,100216.84
2023-01-19T11:51:05.802Z,100207.94
2023-01-19T11:53:35.529Z,100211.78
2023-01-19T11:56:09.526Z,100220.00
2023-01-19T11:58:40.724Z,100210.66
2023-01-19T12:01:20.880Z,100212.56
2023-01-19T12:03:59.588Z,100211.41
2023-01-19T12:06:32.412Z,100214.03
2023-01-19T12:09:08.511Z,100219.88
2023-01-19T12:11:40.476Z,100210.56
2023-01-19T12:14:18.127Z,100222.81
2023-01-19T12:16:47.648Z,100215.78
2023-01-19T12:19:21.934Z,100212.00
2023-01-19T12:21:52.569Z,100209.38
2023-01-19T12:24:32.165Z,100215.28
2023-01-19T12:27:02.889Z,100212.22
2023-01-19T12:29:35.694Z,100210.88
2023-01-19T12:32:21.177Z,100214.06
2023-01-19T12:34:52.456Z,100217.56
2023-01-19T12:37:42.295Z,100216.03
2023-01-19T12:40:27.224Z,100218.47
2023-01-19T12:43:01.882Z,100218.59
2023-01-19T12:45:35.164Z,100223.56
2023-01-19T12:48:04.959Z,100219.31
2023-01-19T12:50:38.436Z,100228.97
2023-01-19T12:53:18.271Z,100231.38
2023-01-19T12:55:47.632Z,100224.50
2023-01-19T12:58:19.163Z,100223.75
2023-01-19T13:00:50.055Z,100227.38
2023-01-19T13:03:44.208Z,100226.06
2023-01-19T13:06:14.496Z,100228.50
2023-01-19T13:09:01.665Z,100227.94
2023-01-19T13:11:34.286Z,100228.19
2023-01-19T13:14:35.931Z,100214.66
2023-01-19T13:17:35.848Z,100231.31
2023-01-19T13:20:24.770Z,100229.22
2023-01-19T13:23:18.114Z,100221.88
2023-01-19T13:26:00.992Z,100224.81
2023-01-19T13:28:38.280Z,100215.72
2023-01-19T13:31:09.926Z,100225.22
2023-01-19T13:33:50.533Z,100227.94
2023-01-19T13:36:26.207Z,100225.63
2023-01-19T13:38:57.783Z,100227.91
2023-01-19T13:41:29.972Z,100232.81
2023-01-19T13:44:03.209Z,100236.59
2023-01-19T13:46:33.618Z,100235.06
2023-01-19T13:49:06.602Z,100246.84
2023-01-19T13:51:35.088Z,100238.69
2023-01-19T13:54:06.164Z,100243.50
2023-01-19T13:56:34.714Z,100253.66
2023-01-19T13:59:11.726Z,100249.56
2023-01-19T14:01:42.355Z,100259.94
2023-01-19T14:04:28.716Z,100262.97
2023-01-19T14:07:00.138Z,100258.13
2023-01-19T14:09:30.092Z,100262.91
2023-01-19T14:12:15.016Z,100260.75
2023-01-19T14:14:44.839Z,100262.25
2023-01-19T14:17:24.596Z,100259.28
2023-01-19T14:19:55.466Z,100258.06
2023-01-19T14:22:37.856Z,100258.25
2023-01-19T14:25:29.333Z,100263.94
2023-01-19T14:28:31.341Z,100270.47
2023-01-19T14:31:02.554Z,100273.22
2023-01-19T14:33:46.125Z,100269.22
2023-01-19T14:36:39.165Z,100273.44
2023-01-19T14:39:09.525Z,100275.16
2023-01-19T14:41:44.727Z,100278.09
2023-01-19T14:44:18.744Z,100278.72
2023-01-19T14:46:49.429Z,100276.66
2023-01-19T14:49:23.043Z,100281.69
2023-01-19T14:51:51.916Z,100287.31
2023-01-19T14:54:27.213Z,100286.44
2023-01-19T14:56:57.106Z,100283.31
2023-01-19T14:59:25.701Z,100286.06
2023-01-19T15:01:54.336Z,100289.22
2023-01-19T15:04:23.299Z,100292.38
2023-01-19T15:06:51.768Z,100293.00
2023-01-19T15:09:20.307Z,100299.63
2023-01-19T15:11:50.949Z,100295.91
2023-01-19T15:14:22.351Z,100298.25
2023-01-19T15:16:51.306Z,100299.38
2023-01-19T15:19:20.130Z,100307.91
2023-01-19T15:21:48.643Z,100312.75
2023-01-19T15:24:18.214Z,100310.78
2023-01-19T15:26:46.992Z,100318.25
2023-01-19T15:29:27.216Z,100308.09
2023-01-19T15:31:55.694Z,100313.47
2023-01-19T15:34:24.220Z,100309.44
2023-01-19T15:36:52.703Z,100317.84
2023-01-19T15:39:21.190Z,100321.03
2023-01-19T15:41:49.736Z,100314.41
2023-01-19T15:44:18.202Z,100323.69
2023-01-19T15:46:48.069Z,100322.50
2023-01-19T15:49:16.576Z,100328.56
2023-01-19T15:51:45.081Z,100329.75
2023-01-19T15:54:15.312Z,100332.19
2023-01-19T15:56:43.885Z,100334.97
2023-01-19T15:59:12.362Z,100337.78
2023-01-19T16:01:42.219Z,100333.88
2023-01-19T16:04:13.312Z,100339.25
2023-01-19T16:06:41.834Z,100344.75
2023-01-19T16:09:12.187Z,100347.91
2023-01-19T16:11:40.700Z,100345.38
2023-01-19T16:14:09.179Z,100356.16
2023-01-19T16:16:38.027Z,100349.63
2023-01-19T16:19:06.592Z,100355.91
2023-01-19T16:21:36.649Z,100361.81
2023-01-19T16:24:05.389Z,100360.22
2023-01-19T16:26:35.322Z,100354.81
2023-01-19T16:29:07.957Z,100365.59
2023-01-19T16:31:36.984Z,100362.16
2023-01-19T16:34:05.819Z,100362.81
2023-01-19T16:36:37.612Z,100357.16
2023-01-19T16:39:08.495Z,100367.88
2023-01-19T16:41:37.921Z,100365.09
2023-01-19T16:44:07.119Z,100367.19
2023-01-19T16:46:37.380Z,100373.03
2023-01-19T16:49:07.812Z,100372.69
2023-01-19T16:51:37.684Z,100371.06
2023-01-19T16:54:06.645Z,100380.59
2023-01-19T16:56:35.295Z,100387.38
2023-01-19T16:59:03.815Z,100377.47
2023-01-19T17:01:33.468Z,100391.66
2023-01-19T17:04:02.038Z,100384.78
2023-01-19T17:06:30.618Z,100388.59
2023-01-19T17:09:00.565Z,100394.88
2023-01-19T17:11:30.549Z,100399.56
2023-01-19T17:14:01.059Z,100400.56
2023-01-19T17:16:31.457Z,100398.91
2023-01-19T17:19:01.436Z,100409.00
2023-01-19T17:21:30.510Z,100404.19
2023-01-19T17:24:01.118Z,100406.63
2023-01-19T17:26:31.024Z,100406.66
2023-01-19T17:29:00.857Z,100399.53
2023-01-19T17:31:30.228Z,100395.28
2023-01-19T17:33:59.562Z,100401.19
2023-01-19T17:36:29.626Z,100406.47
2023-01-19T17:39:01.292Z,100409.19
2023-01-19T17:41:31.275Z,100404.16
2023-01-19T17:44:00.532Z,100396.97
2023-01-19T17:46:30.313Z,100408.78
2023-01-19T17:49:00.626Z,100413.16
2023-01-19T17:51:30.254Z,100403.50
2023-01-19T17:54:00.337Z,100412.16
2023-01-19T17:56:32.210Z,100415.94
2023-01-19T17:59:00.884Z,100411.34
2023-01-19T18:01:30.722Z,100415.94
2023-01-19T18:04:01.021Z,100415.28
2023-01-19T18:06:29.579Z,100417.19
2023-01-19T18:09:00.106Z,100418.66
2023-01-19T18:11:29.106Z,100424.31
2023-01-19T18:13:58.468Z,100419.09
2023-01-19T18:16:28.945Z,100422.47
2023-01-19T18:18:58.260Z,100424.16
2023-01-19T18:21:28.863Z,100430.28
2023-01-19T18:24:03.342Z,100424.63
2023-01-19T18:26:34.190Z,100436.00
2023-01-19T18:29:03.269Z,100432.19
2023-01-19T18:31:32.104Z,100436.41
2023-01-19T18:34:01.273Z,100434.75
2023-01-19T18:36:31.993Z,100441.88
2023-01-19T18:39:02.779Z,100435.16
2023-01-19T18:41:31.479Z,100447.38
2023-01-19T18:44:00.159Z,100437.66
2023-01-19T18:46:28.753Z,100438.50
2023-01-19T18:48:57.337Z,100442.31
2023-01-19T18:51:25.833Z,100443.13
2023-01-19T18:53:54.418Z,100435.56
2023-01-19T18:56:24.377Z,100436.41
2023-01-19T18:58:53.355Z,100434.94
2023-01-19T19:01:25.579Z,100441.25
2023-01-19T19:03:55.154Z,100445.88
2023-01-19T19:06:26.844Z,100447.13
2023-01-19T19:08:57.498Z,100449.69
2023-01-19T19:11:27.686Z,100445.88
2023-01-19T19:13:58.142Z,100450.09
2023-01-19T19:16:26.775Z,100454.31
2023-01-19T19:18:55.390Z,100452.63
2023-01-19T19:21:25.383Z,100454.53
2023-01-19T19:23:54.999Z,100453.91
2023-01-19T19:26:25.059Z,100459.16
2023-01-19T19:28:54.904Z,100456.78
2023-01-19T19:31:26.191Z,100462.69
2023-01-19T19:33:56.057Z,100456.19
2023-01-19T19:36:25.559Z,100462.06
2023-01-19T19:38:54.069Z,100457.63
2023-01-19T19:41:24.454Z,100464.78
2023-01-19T19:43:54.474Z,100463.94
2023-01-19T19:46:25.142Z,100466.25
2023-01-19T19:48:54.536Z,100471.94
2023-01-19T19:51:25.670Z,100472.38
2023-01-19T19:53:55.139Z,100474.50
2023-01-19T19:56:25.073Z,100474.69
2023-01-19T19:58:56.816Z,100470.28
2023-01-19T20:01:28.529Z,100481.81
2023-01-19T20:03:59.922Z,100474.91
2023-01-19T20:06:29.349Z,100475.81
2023-01-19T20:08:58.101Z,100483.59
2023-01-19T20:11:29.064Z,100475.66
2023-01-19T20:13:58.977Z,100475.50
2023-01-19T20:16:27.742Z,100481.38
2023-01-19T20:18:56.326Z,100482.47
2023-01-19T20:21:26.625Z,100493.41
2023-01-19T20:23:56.928Z,100498.47
2023-01-19T20:26:28.973Z,100507.13
2023-01-19T20:29:02.856Z,100506.06
2023-01-19T20:31:33.318Z,100502.28
2023-01-19T20:34:05.492Z,100503.53
2023-01-19T20:36:34.160Z,100509.19
2023-01-19T20:39:08.471Z,100508.56
2023-01-19T20:41:43.161Z,100510.66
2023-01-19T20:44:14.280Z,100516.09
2023-01-19T20:46:43.174Z,100515.91
2023-01-19T20:49:11.726Z,100511.38
2023-01-19T20:51:43.409Z,100517.91
2023-01-19T20:54:12.731Z,100529.31
2023-01-19T20:56:41.721Z,100527.53
2023-01-19T20:59:10.610Z,100529.72
2023-01-19T21:01:41.534Z,100536.06
2023-01-19T21:04:10.776Z,100536.53
2023-01-19T21:06:39.552Z,100537.56
2023-01-19T21:09:08.639Z,100538.66
2023-01-19T21:11:37.782Z,100544.56
2023-01-19T21:14:06.624Z,100554.28
2023-01-19T21:16:37.426Z,100560.63
2023-01-19T21:19:07.619Z,100568.78
2023-01-19T21:21:36.193Z,100573.66
2023-01-19T21:24:05.526Z,100582.09
2023-01-19T21:26:34.371Z,100587.16
2023-01-19T21:29:04.111Z,100582.50
2023-01-19T21:31:32.894Z,100584.75
2023-01-19T21:34:01.639Z,100580.13
2023-01-19T21:36:31.461Z,100589.84
2023-01-19T21:39:01.292Z,100593.81
2023-01-19T21:41:30.969Z,100593.84
2023-01-19T21:44:01.067Z,100595.78
2023-01-19T21:46:32.128Z,100605.63
2023-01-19T21:49:02.242Z,100603.34
2023-01-19T21:51:34.830Z,100610.72
2023-01-19T21:54:04.951Z,100610.03
2023-01-19T21:56:33.916Z,100608.16
2023-01-19T21:59:03.418Z,100609.19
2023-01-19T22:01:32.864Z,100608.75
2023-01-19T22:04:01.672Z,100609.56
2023-01-19T22:06:31.865Z,100614.81
2023-01-19T22:09:00.796Z,100625.59
2023-01-19T22:11:30.099Z,100623.94
2023-01-19T22:13:59.690Z,100626.66
2023-01-19T22:16:30.152Z,100635.44
2023-01-19T22:19:01.187Z,100635.44
2023-01-19T22:21:33.972Z,100628.53
2023-01-19T22:24:04.279Z,100643.66
2023-01-19T22:26:34.701Z,100638.00
2023-01-19T22:29:04.836Z,100640.56
2023-01-19T22:31:33.508Z,100634.88
2023-01-19T22:34:02.071Z,100635.75
2023-01-19T22:36:33.990Z,100640.34
2023-01-19T22:39:05.518Z,100640.72
2023-01-19T22:41:36.340Z,100645.78
2023-01-19T22:44:07.267Z,100646.41
2023-01-19T22:46:38.001Z,100639.63
2023-01-19T22:49:08.229Z,100647.59
2023-01-19T22:51:38.282Z,100646.28
2023-01-19T22:54:07.218Z,100654.97
2023-01-19T22:56:37.145Z,100653.63
2023-01-19T22:59:06.813Z,100657.81
2023-01-19T23:01:37.660Z,100662.28
2023-01-19T23:04:07.790Z,100660.06
2023-01-19T23:06:38.603Z,100659.66
2023-01-19T23:09:09.058Z,100667.47
2023-01-19T23:11:39.922Z,100668.34
2023-01-19T23:14:11.532Z,100670.94
2023-01-19T23:16:40.150Z,100667.75
2023-01-19T23:19:08.716Z,100668.97
2023-01-19T23:21:38.581Z,100678.47
2023-01-19T23:24:07.904Z,100671.59
2023-01-19T23:26:38.212Z,100678.16
2023-01-19T23:29:09.540Z,100676.84
2023-01-19T23:31:39.766Z,100680.47
2023-01-19T23:34:10.158Z,100680.47
2023-01-19T23:36:41.900Z,100686.56
2023-01-19T23:39:15.776Z,100683.88
2023-01-19T23:41:44.381Z,100688.81
2023-01-19T23:44:12.925Z,100683.06
2023-01-19T23:46:41.471Z,100688.09
2023-01-19T23:49:09.951Z,100693.34
2023-01-19T23:51:41.671Z,100695.44
2023-01-19T23:54:10.232Z,100692.09
2023-01-19T23:56:39.585Z,100690.47
2023-01-19T23:59:09.635Z,100685.16
